createdAt,value
2023-02-16T00:00:57.425Z,18.77
2023-02-16T00:04:02.020Z,16.17
2023-02-16T00:07:04.907Z,16.03
2023-02-16T00:10:08.329Z,15.23
2023-02-16T00:13:40.811Z,15.70
2023-02-16T00:16:43.730Z,18.33
2023-02-16T00:19:47.689Z,16.47
2023-02-16T00:22:50.351Z,17.33
2023-02-16T00:25:53.041Z,17.37
2023-02-16T00:28:59.399Z,15.00
2023-02-16T00:32:04.800Z,16.43
2023-02-16T00:35:15.770Z,15.63
2023-02-16T00:38:20.622Z,13.27
2023-02-16T00:41:46.888Z,16.87
2023-02-16T00:44:54.071Z,14.80
2023-02-16T00:47:56.873Z,16.47
2023-02-16T00:51:13.804Z,14.73
2023-02-16T00:54:23.056Z,16.50
2023-02-16T00:57:26.942Z,15.80
2023-02-16T01:00:41.716Z,14.83
2023-02-16T01:03:45.293Z,15.80
2023-02-16T01:07:07.538Z,15.33
2023-02-16T01:10:31.006Z,16.10
2023-02-16T01:13:44.831Z,14.27
2023-02-16T01:16:47.579Z,15.93
2023-02-16T01:19:50.272Z,15.90
2023-02-16T01:22:57.473Z,16.10
2023-02-16T01:26:03.263Z,15.37
2023-02-16T01:29:06.428Z,14.20
2023-02-16T01:32:11.918Z,15.10
2023-02-16T01:35:18.190Z,15.03
2023-02-16T01:38:24.235Z,16.83
2023-02-16T01:41:47.544Z,15.60
2023-02-16T01:44:59.213Z,14.10
2023-02-16T01:48:05.636Z,14.33
2023-02-16T01:51:17.501Z,13.43
2023-02-16T01:54:39.829Z,14.10
2023-02-16T01:57:46.027Z,14.60
2023-02-16T02:01:41.881Z,13.30
2023-02-16T02:05:06.076Z,12.83
2023-02-16T02:08:17.501Z,14.00
2023-02-16T02:11:35.635Z,12.90
2023-02-16T02:14:40.330Z,13.40
2023-02-16T02:17:42.933Z,14.13
2023-02-16T02:21:20.161Z,15.77
2023-02-16T02:25:03.032Z,11.93
2023-02-16T02:28:13.506Z,13.47
2023-02-16T02:31:42.508Z,13.90
2023-02-16T02:34:58.725Z,14.73
2023-02-16T02:41:50.705Z,14.63
2023-02-16T02:44:59.129Z,11.57
2023-02-16T02:48:09.391Z,12.83
2023-02-16T02:51:33.790Z,13.50
2023-02-16T02:55:00.160Z,12.80
2023-02-16T02:58:24.081Z,10.90
2023-02-16T03:01:34.097Z,9.10
2023-02-16T03:04:37.095Z,11.97
2023-02-16T03:07:50.404Z,11.43
2023-02-16T03:11:14.193Z,11.97
2023-02-16T03:14:19.596Z,13.10
2023-02-16T03:17:52.639Z,13.10
2023-02-16T03:21:17.587Z,14.87
2023-02-16T03:24:41.707Z,13.30
2023-02-16T03:28:02.409Z,13.37
2023-02-16T03:31:07.473Z,12.77
2023-02-16T03:34:12.724Z,13.67
2023-02-16T03:37:21.686Z,12.23
2023-02-16T03:40:30.170Z,11.97
2023-02-16T03:43:37.930Z,13.90
2023-02-16T03:46:40.676Z,12.00
2023-02-16T03:49:44.766Z,12.23
2023-02-16T03:53:06.509Z,12.03
2023-02-16T03:56:09.186Z,13.07
2023-02-16T03:59:14.861Z,12.73
2023-02-16T04:02:17.622Z,11.03
2023-02-16T04:05:21.715Z,12.97
2023-02-16T04:08:24.530Z,12.47
2023-02-16T04:11:44.585Z,17.90
2023-02-16T04:14:47.266Z,13.37
2023-02-16T04:17:50.203Z,14.03
2023-02-16T04:20:56.708Z,12.13
2023-02-16T04:24:00.236Z,13.07
2023-02-16T04:27:03.439Z,11.87
2023-02-16T04:30:08.163Z,13.53
2023-02-16T04:33:16.910Z,12.97
2023-02-16T04:36:20.961Z,11.70
2023-02-16T04:39:23.622Z,13.70
2023-02-16T04:42:26.331Z,13.27
2023-02-16T04:45:30.543Z,13.97
2023-02-16T04:48:33.177Z,13.57
2023-02-16T04:51:40.009Z,12.80
2023-02-16T04:54:49.808Z,12.93
2023-02-16T04:57:52.464Z,14.70
2023-02-16T05:00:55.057Z,15.27
2023-02-16T05:03:58.132Z,13.93
2023-02-16T05:07:11.292Z,14.90
2023-02-16T05:10:15.575Z,15.07
2023-02-16T05:13:40.672Z,15.13
2023-02-16T05:16:47.598Z,9.80
2023-02-16T05:19:51.991Z,13.03
2023-02-16T05:22:55.957Z,12.03
2023-02-16T05:25:58.611Z,14.80
2023-02-16T05:29:01.539Z,12.53
2023-02-16T05:32:04.959Z,12.93
2023-02-16T05:35:07.875Z,12.90
2023-02-16T05:38:11.941Z,14.40
2023-02-16T05:41:25.170Z,15.60
2023-02-16T05:44:29.789Z,14.23
2023-02-16T05:47:32.579Z,11.50
2023-02-16T05:50:35.199Z,11.70
2023-02-16T05:53:39.208Z,12.97
2023-02-16T05:56:46.939Z,13.77
2023-02-16T05:59:49.586Z,13.67
2023-02-16T06:02:52.801Z,12.03
2023-02-16T06:05:56.598Z,13.60
2023-02-16T06:09:01.870Z,12.97
2023-02-16T06:12:09.400Z,15.00
2023-02-16T06:15:26.073Z,15.50
2023-02-16T06:18:28.705Z,14.60
2023-02-16T06:21:40.722Z,13.60
2023-02-16T06:24:44.713Z,15.53
2023-02-16T06:27:47.676Z,16.03
2023-02-16T06:30:51.078Z,16.37
2023-02-16T06:33:56.660Z,13.27
2023-02-16T06:36:59.325Z,15.03
2023-02-16T06:40:03.796Z,14.10
2023-02-16T06:43:06.807Z,13.77
2023-02-16T06:46:11.594Z,14.80
2023-02-16T06:49:16.810Z,16.10
2023-02-16T06:52:19.639Z,14.90
2023-02-16T06:55:23.936Z,15.17
2023-02-16T06:58:26.770Z,15.07
2023-02-16T07:01:29.909Z,13.00
2023-02-16T07:04:38.769Z,14.37
2023-02-16T07:07:41.617Z,11.00
2023-02-16T07:10:50.404Z,11.20
2023-02-16T07:13:55.720Z,12.27
2023-02-16T07:17:04.286Z,12.93
2023-02-16T07:20:13.150Z,15.13
2023-02-16T07:23:18.831Z,14.70
2023-02-16T07:26:30.341Z,13.87
2023-02-16T07:29:33.003Z,16.17
2023-02-16T07:32:40.246Z,15.03
2023-02-16T07:35:44.386Z,12.53
2023-02-16T07:38:47.714Z,13.90
2023-02-16T07:41:54.832Z,12.50
2023-02-16T07:45:00.834Z,13.47
2023-02-16T07:48:06.753Z,14.20
2023-02-16T07:51:11.707Z,13.00
2023-02-16T07:54:14.337Z,16.60
2023-02-16T07:57:18.385Z,15.40
2023-02-16T08:00:29.953Z,15.03
2023-02-16T08:03:35.808Z,15.93
2023-02-16T08:06:41.512Z,14.93
2023-02-16T08:09:44.626Z,15.20
2023-02-16T08:12:55.252Z,12.00
2023-02-16T08:15:58.017Z,15.13
2023-02-16T08:19:03.588Z,15.77
2023-02-16T08:22:07.337Z,15.13
2023-02-16T08:25:10.349Z,13.13
2023-02-16T08:28:14.819Z,14.43
2023-02-16T08:31:25.912Z,11.97
2023-02-16T08:34:28.655Z,12.53
2023-02-16T08:37:35.984Z,12.93
2023-02-16T08:40:48.128Z,12.57
2023-02-16T08:43:52.304Z,14.30
2023-02-16T08:47:00.343Z,14.90
2023-02-16T08:50:03.560Z,12.10
2023-02-16T08:53:06.275Z,14.90
2023-02-16T08:56:09.833Z,14.60
2023-02-16T08:59:15.222Z,9.97
2023-02-16T09:02:20.303Z,11.13
2023-02-16T09:05:23.666Z,10.60
2023-02-16T09:08:33.625Z,15.33
2023-02-16T09:12:01.516Z,12.57
2023-02-16T09:15:09.500Z,14.70
2023-02-16T09:18:14.009Z,15.67
2023-02-16T09:21:19.538Z,13.97
2023-02-16T09:24:22.917Z,15.13
2023-02-16T09:27:26.015Z,15.90
2023-02-16T09:30:30.124Z,16.17
2023-02-16T09:33:35.961Z,11.03
2023-02-16T09:36:52.889Z,10.37
2023-02-16T09:39:58.370Z,14.43
2023-02-16T09:43:09.397Z,9.17
2023-02-16T09:46:17.091Z,15.47
2023-02-16T09:49:28.310Z,12.67
2023-02-16T09:52:37.642Z,12.43
2023-02-16T09:55:48.495Z,6.97
2023-02-16T09:58:57.756Z,10.43
2023-02-16T10:02:22.396Z,14.67
2023-02-16T10:05:31.230Z,6.37
2023-02-16T10:08:39.204Z,10.70
2023-02-16T10:11:48.868Z,7.57
2023-02-16T10:14:53.974Z,8.80
2023-02-16T10:18:07.473Z,10.83
2023-02-16T10:21:18.031Z,11.47
2023-02-16T10:24:20.920Z,5.00
2023-02-16T10:27:24.122Z,11.53
2023-02-16T10:30:32.855Z,6.17
2023-02-16T10:33:43.977Z,10.53
2023-02-16T10:37:11.616Z,12.80
2023-02-16T10:40:24.351Z,10.17
2023-02-16T10:43:43.035Z,6.70
2023-02-16T10:46:50.074Z,7.03
2023-02-16T10:49:54.385Z,7.77
2023-02-16T10:53:02.970Z,6.60
2023-02-16T10:56:34.865Z,5.97
2023-02-16T10:59:42.428Z,7.80
2023-02-16T11:02:48.213Z,12.30
2023-02-16T11:05:56.384Z,8.87
2023-02-16T11:09:01.146Z,11.60
2023-02-16T11:12:16.669Z,8.37
2023-02-16T11:15:44.547Z,8.77
2023-02-16T11:18:59.718Z,7.77
2023-02-16T11:22:08.658Z,6.47
2023-02-16T11:25:27.054Z,12.50
2023-02-16T11:28:33.544Z,12.13
2023-02-16T11:31:40.859Z,11.03
2023-02-16T11:34:46.911Z,10.63
2023-02-16T11:37:53.834Z,8.60
2023-02-16T11:40:57.994Z,7.43
2023-02-16T11:44:10.498Z,13.90
2023-02-16T11:47:32.843Z,7.80
2023-02-16T11:50:38.625Z,10.87
2023-02-16T11:53:44.615Z,15.07
2023-02-16T11:57:07.413Z,8.47
2023-02-16T12:00:18.155Z,6.60
2023-02-16T12:03:51.121Z,9.20
2023-02-16T12:10:44.419Z,12.47
2023-02-16T12:13:59.237Z,13.83
2023-02-16T12:17:16.615Z,11.00
2023-02-16T12:20:38.344Z,7.33
2023-02-16T12:23:43.741Z,9.03
2023-02-16T12:26:53.163Z,13.53
2023-02-16T12:30:02.747Z,8.73
2023-02-16T12:33:27.934Z,7.63
2023-02-16T12:36:58.874Z,9.90
2023-02-16T12:40:23.538Z,11.70
2023-02-16T12:43:38.279Z,10.87
2023-02-16T12:46:45.720Z,12.37
2023-02-16T12:49:53.758Z,6.73
2023-02-16T12:52:59.999Z,10.97
2023-02-16T12:56:10.824Z,7.87
2023-02-16T12:59:21.312Z,7.60
2023-02-16T13:02:29.727Z,10.67
2023-02-16T13:05:42.740Z,10.97
2023-02-16T13:08:52.376Z,10.50
2023-02-16T13:12:02.412Z,10.03
2023-02-16T13:15:17.806Z,13.23
2023-02-16T13:18:23.181Z,14.47
2023-02-16T13:21:51.244Z,10.13
2023-02-16T13:25:10.931Z,8.93
2023-02-16T13:28:34.182Z,10.83
2023-02-16T13:31:57.881Z,11.70
2023-02-16T13:35:44.514Z,14.20
2023-02-16T13:39:19.172Z,9.40
2023-02-16T13:42:40.845Z,7.83
2023-02-16T13:45:46.851Z,12.37
2023-02-16T13:48:53.488Z,11.37
2023-02-16T13:51:56.579Z,11.63
2023-02-16T13:55:01.940Z,14.43
2023-02-16T13:58:08.673Z,8.17
2023-02-16T14:01:43.506Z,14.87
2023-02-16T14:05:07.343Z,10.70
2023-02-16T14:08:17.081Z,14.30
2023-02-16T14:11:22.275Z,13.10
2023-02-16T14:14:31.236Z,13.17
2023-02-16T14:17:37.734Z,14.83
2023-02-16T14:20:41.794Z,13.37
2023-02-16T14:23:46.258Z,13.17
2023-02-16T14:26:55.506Z,10.50
2023-02-16T14:30:02.534Z,13.80
2023-02-16T14:33:21.563Z,14.00
2023-02-16T14:36:27.673Z,16.77
2023-02-16T14:39:30.754Z,10.33
2023-02-16T14:42:35.998Z,14.83
2023-02-16T14:46:19.327Z,12.13
2023-02-16T14:49:55.500Z,14.87
2023-02-16T14:53:28.224Z,10.60
2023-02-16T14:56:39.778Z,14.30
2023-02-16T14:59:52.156Z,14.90
2023-02-16T15:02:58.511Z,12.20
2023-02-16T15:06:07.837Z,16.00
2023-02-16T15:09:17.763Z,18.87
2023-02-16T15:13:15.940Z,15.13
2023-02-16T15:16:19.259Z,14.70
2023-02-16T15:19:30.244Z,16.33
2023-02-16T15:22:33.496Z,15.00
2023-02-16T15:25:39.438Z,8.70
2023-02-16T15:28:43.390Z,18.80
2023-02-16T15:31:46.771Z,14.93
2023-02-16T15:34:50.995Z,13.83
2023-02-16T15:38:23.380Z,15.33
2023-02-16T15:41:34.234Z,14.00
2023-02-16T15:44:39.184Z,17.70
2023-02-16T15:47:44.178Z,10.03
2023-02-16T15:50:49.251Z,14.40
2023-02-16T15:53:54.366Z,6.93
2023-02-16T15:57:02.025Z,14.43
2023-02-16T16:00:07.451Z,12.23
2023-02-16T16:03:15.315Z,11.47
2023-02-16T16:06:21.094Z,13.57
2023-02-16T16:09:26.501Z,15.77
2023-02-16T16:12:31.440Z,15.83
2023-02-16T16:15:39.810Z,17.77
2023-02-16T16:18:47.537Z,17.13
2023-02-16T16:21:54.267Z,15.63
2023-02-16T16:24:57.270Z,17.87
2023-02-16T16:28:04.200Z,16.90
2023-02-16T16:31:09.546Z,19.50
2023-02-16T16:34:32.827Z,18.17
2023-02-16T16:37:37.613Z,18.43
2023-02-16T16:40:40.712Z,18.33
2023-02-16T16:43:54.955Z,18.37
2023-02-16T16:46:57.616Z,17.77
2023-02-16T16:50:02.564Z,17.63
2023-02-16T16:53:41.489Z,17.17
2023-02-16T16:56:44.225Z,18.43
2023-02-16T16:59:48.182Z,17.37
2023-02-16T17:02:51.600Z,18.90
2023-02-16T17:05:54.248Z,18.23
2023-02-16T17:08:58.476Z,21.00
2023-02-16T17:12:01.212Z,22.83
2023-02-16T17:15:08.761Z,22.80
2023-02-16T17:18:16.233Z,18.60
2023-02-16T17:21:20.221Z,18.90
2023-02-16T17:24:22.894Z,21.57
2023-02-16T17:27:25.491Z,19.90
2023-02-16T17:30:29.511Z,23.80
2023-02-16T17:33:32.134Z,23.07
2023-02-16T17:36:35.549Z,22.20
2023-02-16T17:39:38.572Z,20.70
2023-02-16T17:42:41.615Z,23.17
2023-02-16T17:45:46.923Z,22.97
2023-02-16T17:48:52.621Z,19.57
2023-02-16T17:51:56.345Z,25.50
2023-02-16T17:54:59.565Z,25.43
2023-02-16T17:58:02.980Z,26.03
2023-02-16T18:01:07.436Z,28.67
2023-02-16T18:04:10.234Z,20.80
2023-02-16T18:07:13.625Z,24.43
2023-02-16T18:10:21.782Z,24.73
2023-02-16T18:13:24.400Z,24.47
2023-02-16T18:16:28.608Z,25.80
2023-02-16T18:19:32.832Z,21.90
2023-02-16T18:22:35.510Z,32.27
2023-02-16T18:25:39.117Z,21.67
2023-02-16T18:28:41.805Z,27.87
2023-02-16T18:31:47.616Z,26.73
2023-02-16T18:34:50.460Z,22.37
2023-02-16T18:37:53.224Z,25.40
2023-02-16T18:40:56.428Z,20.77
2023-02-16T18:43:59.073Z,18.07
2023-02-16T18:47:06.125Z,21.93
2023-02-16T18:50:09.760Z,22.70
2023-02-16T18:53:12.617Z,21.47
2023-02-16T18:56:15.294Z,22.03
2023-02-16T18:59:32.040Z,21.23
2023-02-16T19:02:40.859Z,22.40
2023-02-16T19:05:43.826Z,22.27
2023-02-16T19:08:47.480Z,19.73
2023-02-16T19:11:50.152Z,20.87
2023-02-16T19:15:02.873Z,22.50
2023-02-16T19:18:10.068Z,21.00
2023-02-16T19:21:17.009Z,18.97
2023-02-16T19:24:19.655Z,22.53
2023-02-16T19:27:22.437Z,24.20
2023-02-16T19:30:25.183Z,20.73
2023-02-16T19:33:29.236Z,18.07
2023-02-16T19:36:35.064Z,19.53
2023-02-16T19:39:41.281Z,25.63
2023-02-16T19:42:44.721Z,23.73
2023-02-16T19:45:51.278Z,24.30
2023-02-16T19:49:02.249Z,23.47
2023-02-16T19:52:05.193Z,20.10
2023-02-16T19:55:10.067Z,27.03
2023-02-16T19:58:14.080Z,20.00
2023-02-16T20:01:22.119Z,23.00
2023-02-16T20:04:27.329Z,25.27
2023-02-16T20:07:29.948Z,19.70
2023-02-16T20:10:33.786Z,23.03
2023-02-16T20:13:36.559Z,20.60
2023-02-16T20:16:40.080Z,26.13
2023-02-16T20:19:44.337Z,19.93
2023-02-16T20:22:47.518Z,20.73
2023-02-16T20:25:53.243Z,19.77
2023-02-16T20:28:57.298Z,20.13
2023-02-16T20:32:03.198Z,21.97
2023-02-16T20:35:10.068Z,22.80
2023-02-16T20:38:13.136Z,22.20
2023-02-16T20:41:16.120Z,23.00
2023-02-16T20:44:20.172Z,24.20
2023-02-16T20:47:22.823Z,22.97
2023-02-16T20:50:26.788Z,30.07
2023-02-16T20:53:30.101Z,21.47
2023-02-16T20:56:32.837Z,21.87
2023-02-16T20:59:35.472Z,23.17
2023-02-16T21:02:38.112Z,21.63
2023-02-16T21:05:42.641Z,18.13
2023-02-16T21:08:45.552Z,19.27
2023-02-16T21:11:48.236Z,18.93
2023-02-16T21:14:50.911Z,19.67
2023-02-16T21:17:53.562Z,17.57
2023-02-16T21:20:57.602Z,19.30
2023-02-16T21:24:00.252Z,19.23
2023-02-16T21:27:03.875Z,19.70
2023-02-16T21:30:07.894Z,19.90
2023-02-16T21:33:10.745Z,18.10
2023-02-16T21:36:16.721Z,21.07
2023-02-16T21:39:19.578Z,21.63
2023-02-16T21:42:21.323Z,22.70
2023-02-16T21:45:24.067Z,23.00
2023-02-16T21:48:44.582Z,21.73
2023-02-16T21:51:49.698Z,20.50
2023-02-16T21:55:10.776Z,18.57
2023-02-16T21:58:13.711Z,19.17
2023-02-16T22:01:22.583Z,19.90
2023-02-16T22:04:25.753Z,18.30
2023-02-16T22:07:30.536Z,19.37
2023-02-16T22:10:33.185Z,18.03
2023-02-16T22:13:36.366Z,16.83
2023-02-16T22:16:39.664Z,17.53
2023-02-16T22:19:42.280Z,18.37
2023-02-16T22:22:46.833Z,18.43
2023-02-16T22:25:49.456Z,18.07
2023-02-16T22:28:52.590Z,17.30
2023-02-16T22:31:55.259Z,18.03
2023-02-16T22:35:01.070Z,17.80
2023-02-16T22:38:05.121Z,19.07
2023-02-16T22:41:08.612Z,18.50
2023-02-16T22:44:15.645Z,18.27
2023-02-16T22:47:18.632Z,17.93
2023-02-16T22:50:21.270Z,18.93
2023-02-16T22:53:26.966Z,18.37
2023-02-16T22:56:30.681Z,19.63
2023-02-16T22:59:36.725Z,19.00
2023-02-16T23:02:39.392Z,19.97
2023-02-16T23:05:48.466Z,20.73
2023-02-16T23:08:55.004Z,19.97
2023-02-16T23:11:57.604Z,20.83
2023-02-16T23:15:00.183Z,20.87
2023-02-16T23:18:06.914Z,19.73
2023-02-16T23:21:11.527Z,19.27
2023-02-16T23:24:17.676Z,19.43
2023-02-16T23:27:20.273Z,18.57
2023-02-16T23:30:26.208Z,19.03
2023-02-16T23:33:29.019Z,19.53
2023-02-16T23:36:36.053Z,19.37
2023-02-16T23:39:47.503Z,18.87
2023-02-16T23:42:50.124Z,19.23
2023-02-16T23:45:52.860Z,20.47
2023-02-16T23:48:58.708Z,18.23
2023-02-16T23:52:03.556Z,18.57
2023-02-16T23:55:10.716Z,18.07
2023-02-16T23:58:13.314Z,16.87
